createdAt,value
2023-05-24T00:00:27.463Z,100.00
2023-05-24T00:02:55.136Z,100.00
2023-05-24T00:05:23.670Z,100.00
2023-05-24T00:07:51.831Z,100.00
2023-05-24T00:10:19.467Z,100.00
2023-05-24T00:12:47.047Z,100.00
2023-05-24T00:15:14.857Z,100.00
2023-05-24T00:17:42.691Z,100.00
2023-05-24T00:20:14.202Z,100.00
2023-05-24T00:22:42.647Z,100.00
2023-05-24T00:25:10.643Z,100.00
2023-05-24T00:27:38.234Z,100.00
2023-05-24T00:30:07.385Z,100.00
2023-05-24T00:32:35.225Z,100.00
2023-05-24T00:35:04.260Z,100.00
2023-05-24T00:37:31.821Z,100.00
2023-05-24T00:39:59.386Z,100.00
2023-05-24T00:42:26.927Z,100.00
2023-05-24T00:44:54.468Z,100.00
2023-05-24T00:47:22.107Z,100.00
2023-05-24T00:49:49.748Z,100.00
2023-05-24T00:52:18.430Z,100.00
2023-05-24T00:54:46.366Z,100.00
2023-05-24T00:57:14.454Z,100.00
2023-05-24T00:59:42.289Z,100.00
2023-05-24T01:02:10.007Z,100.00
2023-05-24T01:04:38.124Z,100.00
2023-05-24T01:07:14.458Z,100.00
2023-05-24T01:10:04.646Z,100.00
2023-05-24T01:12:45.216Z,100.00
2023-05-24T01:15:29.289Z,100.00
2023-05-24T01:18:17.143Z,100.00
2023-05-24T01:20:46.949Z,100.00
2023-05-24T01:23:41.830Z,100.00
2023-05-24T01:26:38.219Z,100.00
2023-05-24T01:29:06.387Z,100.00
2023-05-24T01:31:35.961Z,100.00
2023-05-24T01:34:03.682Z,100.00
2023-05-24T01:36:31.243Z,100.00
2023-05-24T01:38:58.879Z,100.00
2023-05-24T01:41:49.930Z,100.00
2023-05-24T01:44:35.470Z,100.00
2023-05-24T01:47:12.699Z,100.00
2023-05-24T01:49:45.251Z,100.00
2023-05-24T01:52:16.956Z,100.00
2023-05-24T01:54:52.590Z,100.00
2023-05-24T01:57:22.003Z,100.00
2023-05-24T01:59:51.359Z,100.00
2023-05-24T02:02:19.793Z,100.00
2023-05-24T02:04:47.444Z,100.00
2023-05-24T02:07:15.164Z,100.00
2023-05-24T02:09:42.722Z,100.00
2023-05-24T02:12:11.206Z,100.00
2023-05-24T02:14:39.172Z,100.00
2023-05-24T02:17:07.122Z,100.00
2023-05-24T02:19:36.867Z,100.00
2023-05-24T02:22:04.669Z,100.00
2023-05-24T02:24:32.261Z,100.00
2023-05-24T02:26:59.796Z,100.00
2023-05-24T02:29:27.481Z,100.00
2023-05-24T02:31:56.654Z,100.00
2023-05-24T02:34:25.121Z,100.00
2023-05-24T02:36:54.304Z,100.00
2023-05-24T02:39:21.925Z,100.00
2023-05-24T02:41:49.498Z,100.00
2023-05-24T02:44:17.192Z,100.00
2023-05-24T02:46:44.904Z,100.00
2023-05-24T02:49:12.504Z,100.00
2023-05-24T02:51:40.130Z,100.00
2023-05-24T02:54:07.811Z,100.00
2023-05-24T02:56:35.691Z,100.00
2023-05-24T02:59:03.230Z,100.00
2023-05-24T03:01:30.946Z,100.00
2023-05-24T03:03:58.656Z,100.00
2023-05-24T03:06:26.359Z,100.00
2023-05-24T03:08:53.895Z,100.00
2023-05-24T03:11:22.691Z,100.00
2023-05-24T03:13:50.494Z,100.00
2023-05-24T03:16:18.048Z,100.00
2023-05-24T03:18:45.629Z,100.00
2023-05-24T03:21:13.300Z,100.00
2023-05-24T03:23:40.830Z,100.00
2023-05-24T03:26:08.365Z,100.00
2023-05-24T03:28:35.887Z,100.00
2023-05-24T03:31:03.436Z,100.00
2023-05-24T03:33:32.139Z,100.00
2023-05-24T03:36:00.506Z,100.00
2023-05-24T03:38:28.056Z,100.00
2023-05-24T03:40:55.798Z,100.00
2023-05-24T03:43:23.452Z,100.00
2023-05-24T03:45:51.295Z,100.00
2023-05-24T03:48:20.791Z,100.00
2023-05-24T03:50:48.800Z,100.00
2023-05-24T03:53:16.560Z,100.00
2023-05-24T03:55:44.338Z,100.00
2023-05-24T03:58:12.673Z,100.00
2023-05-24T04:00:40.415Z,100.00
2023-05-24T04:03:09.073Z,100.00
2023-05-24T04:05:36.668Z,100.00
2023-05-24T04:08:04.291Z,100.00
2023-05-24T04:10:31.875Z,100.00
2023-05-24T04:13:00.684Z,100.00
2023-05-24T04:15:28.184Z,100.00
2023-05-24T04:17:55.997Z,100.00
2023-05-24T04:20:25.717Z,100.00
2023-05-24T04:22:53.547Z,100.00
2023-05-24T04:25:21.562Z,100.00
2023-05-24T04:27:49.324Z,100.00
2023-05-24T04:30:17.382Z,100.00
2023-05-24T04:32:45.501Z,100.00
2023-05-24T04:35:13.225Z,100.00
2023-05-24T04:37:41.267Z,100.00
2023-05-24T04:40:10.691Z,100.00
2023-05-24T04:42:38.451Z,100.00
2023-05-24T04:45:07.072Z,100.00
2023-05-24T04:47:34.687Z,100.00
2023-05-24T04:50:02.353Z,100.00
2023-05-24T04:52:30.547Z,100.00
2023-05-24T04:54:58.198Z,100.00
2023-05-24T04:57:25.772Z,100.00
2023-05-24T04:59:53.314Z,100.00
2023-05-24T05:02:22.317Z,100.00
2023-05-24T05:04:49.940Z,100.00
2023-05-24T05:07:17.570Z,100.00
2023-05-24T05:09:45.117Z,100.00
2023-05-24T05:12:13.159Z,100.00
2023-05-24T05:14:40.674Z,100.00
2023-05-24T05:17:08.280Z,100.00
2023-05-24T05:19:35.894Z,100.00
2023-05-24T05:22:03.579Z,100.00
2023-05-24T05:24:31.614Z,100.00
2023-05-24T05:26:59.269Z,100.00
2023-05-24T05:29:26.845Z,100.00
2023-05-24T05:31:54.363Z,100.00
2023-05-24T05:34:22.078Z,100.00
2023-05-24T05:36:49.689Z,100.00
2023-05-24T05:39:17.235Z,100.00
2023-05-24T05:41:46.549Z,100.00
2023-05-24T05:44:15.044Z,100.00
2023-05-24T05:46:46.012Z,100.00
2023-05-24T05:49:15.336Z,100.00
2023-05-24T05:51:43.086Z,100.00
2023-05-24T05:54:14.549Z,100.00
2023-05-24T05:56:45.659Z,100.00
2023-05-24T05:59:13.724Z,100.00
2023-05-24T06:01:41.509Z,100.00
2023-05-24T06:04:09.291Z,100.00
2023-05-24T06:06:37.362Z,100.00
2023-05-24T06:09:05.717Z,100.00
2023-05-24T06:11:33.325Z,100.00
2023-05-24T06:14:01.351Z,100.00
2023-05-24T06:16:28.962Z,100.00
2023-05-24T06:19:05.513Z,100.00
2023-05-24T06:21:34.147Z,100.00
2023-05-24T06:24:02.692Z,100.00
2023-05-24T06:26:30.336Z,100.00
2023-05-24T06:28:57.956Z,100.00
2023-05-24T06:31:25.722Z,100.00
2023-05-24T06:34:03.702Z,100.00
2023-05-24T06:36:34.109Z,100.00
2023-05-24T06:39:01.785Z,100.00
2023-05-24T06:41:29.485Z,100.00
2023-05-24T06:43:57.084Z,100.00
2023-05-24T06:46:24.682Z,100.00
2023-05-24T06:48:52.426Z,100.00
2023-05-24T06:51:20.144Z,100.00
2023-05-24T06:53:47.802Z,100.00
2023-05-24T06:56:15.454Z,100.00
2023-05-24T06:58:43.016Z,100.00
2023-05-24T07:01:11.060Z,100.00
2023-05-24T07:03:38.608Z,100.00
2023-05-24T07:06:06.634Z,100.00
2023-05-24T07:08:34.211Z,100.00
2023-05-24T07:11:02.272Z,100.00
2023-05-24T07:13:29.933Z,100.00
2023-05-24T07:15:57.450Z,100.00
2023-05-24T07:18:25.015Z,100.00
2023-05-24T07:20:52.778Z,100.00
2023-05-24T07:23:20.656Z,100.00
2023-05-24T07:25:48.319Z,100.00
2023-05-24T07:28:19.907Z,100.00
2023-05-24T07:30:47.784Z,100.00
2023-05-24T07:33:16.595Z,100.00
2023-05-24T07:35:45.836Z,100.00
2023-05-24T07:38:13.561Z,100.00
2023-05-24T07:40:41.393Z,100.00
2023-05-24T07:43:09.151Z,100.00
2023-05-24T07:45:36.732Z,100.00
2023-05-24T07:48:04.469Z,100.00
2023-05-24T07:50:32.189Z,100.00
2023-05-24T07:52:59.723Z,100.00
2023-05-24T07:55:28.114Z,100.00
2023-05-24T07:57:56.651Z,96.19
2023-05-24T08:00:24.910Z,97.08
2023-05-24T08:02:52.573Z,99.13
2023-05-24T08:05:20.153Z,100.00
2023-05-24T08:07:48.133Z,100.00
2023-05-24T08:10:15.790Z,99.76
2023-05-24T08:12:43.895Z,98.41
2023-05-24T08:15:12.313Z,96.67
2023-05-24T08:17:41.527Z,97.02
2023-05-24T08:20:13.681Z,95.99
2023-05-24T08:22:41.293Z,93.23
2023-05-24T08:25:09.349Z,89.18
2023-05-24T08:27:37.096Z,87.83
2023-05-24T08:30:05.028Z,83.91
2023-05-24T08:32:33.241Z,85.93
2023-05-24T08:35:18.458Z,85.48
2023-05-24T08:37:48.081Z,80.43
2023-05-24T08:40:16.001Z,77.53
2023-05-24T08:42:44.322Z,81.90
2023-05-24T08:45:16.497Z,76.26
2023-05-24T08:47:44.541Z,72.47
2023-05-24T08:50:12.712Z,70.08
2023-05-24T08:52:41.505Z,77.31
2023-05-24T08:55:10.571Z,79.01
2023-05-24T08:57:39.914Z,78.86
2023-05-24T09:00:11.564Z,79.00
2023-05-24T09:02:40.657Z,71.40
2023-05-24T09:05:12.482Z,64.11
2023-05-24T09:07:41.874Z,60.38
2023-05-24T09:10:10.657Z,62.22
2023-05-24T09:12:39.756Z,67.78
2023-05-24T09:15:09.209Z,68.20
2023-05-24T09:17:37.738Z,66.96
2023-05-24T09:20:10.129Z,66.84
2023-05-24T09:22:41.277Z,67.62
2023-05-24T09:25:11.057Z,62.54
2023-05-24T09:27:39.130Z,65.10
2023-05-24T09:30:12.900Z,60.54
2023-05-24T09:32:41.266Z,66.85
2023-05-24T09:35:10.412Z,59.28
2023-05-24T09:37:40.396Z,60.35
2023-05-24T09:40:18.234Z,66.36
2023-05-24T09:42:46.349Z,67.78
2023-05-24T09:45:13.915Z,63.41
2023-05-24T09:47:43.592Z,62.94
2023-05-24T09:50:16.596Z,66.20
2023-05-24T09:52:44.670Z,61.93
2023-05-24T09:55:16.602Z,53.06
2023-05-24T09:57:52.428Z,55.03
2023-05-24T10:00:25.104Z,58.06
2023-05-24T10:03:15.239Z,56.54
2023-05-24T10:05:46.592Z,58.33
2023-05-24T10:08:14.992Z,57.09
2023-05-24T10:10:43.351Z,62.59
2023-05-24T10:13:11.685Z,68.33
2023-05-24T10:15:39.382Z,66.36
2023-05-24T10:18:10.659Z,60.55
2023-05-24T10:20:42.006Z,63.59
2023-05-24T10:23:11.737Z,63.47
2023-05-24T10:25:45.434Z,67.67
2023-05-24T10:28:16.184Z,59.03
2023-05-24T10:31:02.952Z,54.44
2023-05-24T10:33:33.566Z,59.29
2023-05-24T10:36:01.937Z,57.86
2023-05-24T10:38:31.072Z,62.68
2023-05-24T10:40:58.994Z,60.53
2023-05-24T10:43:27.481Z,60.01
2023-05-24T10:45:56.533Z,64.12
2023-05-24T10:48:30.178Z,66.14
2023-05-24T10:50:57.884Z,63.48
2023-05-24T10:53:28.470Z,59.77
2023-05-24T10:56:04.163Z,57.06
2023-05-24T10:59:01.003Z,54.83
2023-05-24T11:01:32.023Z,63.26
2023-05-24T11:04:19.755Z,67.36
2023-05-24T11:07:00.448Z,67.42
2023-05-24T11:09:29.800Z,69.06
2023-05-24T11:12:04.026Z,67.27
2023-05-24T11:14:33.141Z,65.12
2023-05-24T11:17:01.629Z,67.26
2023-05-24T11:19:34.353Z,65.40
2023-05-24T11:22:04.874Z,66.95
2023-05-24T11:24:33.749Z,66.79
2023-05-24T11:27:03.560Z,65.55
2023-05-24T11:29:31.946Z,68.08
2023-05-24T11:32:04.826Z,69.50
2023-05-24T11:34:35.101Z,66.68
2023-05-24T11:37:06.052Z,70.17
2023-05-24T11:39:35.825Z,68.94
2023-05-24T11:42:07.481Z,69.76
2023-05-24T11:44:38.014Z,68.41
2023-05-24T11:47:08.375Z,66.65
2023-05-24T11:49:36.239Z,62.56
2023-05-24T11:52:03.913Z,63.89
2023-05-24T11:54:33.446Z,64.74
2023-05-24T11:57:02.035Z,71.04
2023-05-24T11:59:30.574Z,72.19
2023-05-24T12:02:08.059Z,71.77
2023-05-24T12:04:36.336Z,71.67
2023-05-24T12:07:04.161Z,72.57
2023-05-24T12:09:32.029Z,72.37
2023-05-24T12:11:59.756Z,73.31
2023-05-24T12:14:31.709Z,71.44
2023-05-24T12:17:00.819Z,71.94
2023-05-24T12:19:36.436Z,71.52
2023-05-24T12:22:08.410Z,71.01
2023-05-24T12:24:36.723Z,73.38
2023-05-24T12:27:07.775Z,72.07
2023-05-24T12:29:37.804Z,68.60
2023-05-24T12:32:06.598Z,66.64
2023-05-24T12:34:34.229Z,70.48
2023-05-24T12:37:01.860Z,72.17
2023-05-24T12:39:31.881Z,72.97
2023-05-24T12:42:02.348Z,73.72
2023-05-24T12:44:35.804Z,71.15
2023-05-24T12:47:06.733Z,74.45
2023-05-24T12:49:35.097Z,72.90
2023-05-24T12:52:02.835Z,72.58
2023-05-24T12:54:30.975Z,72.45
2023-05-24T12:57:00.745Z,70.41
2023-05-24T12:59:29.059Z,75.48
2023-05-24T13:01:57.131Z,79.16
2023-05-24T13:04:26.420Z,76.59
2023-05-24T13:06:54.213Z,78.16
2023-05-24T13:09:23.525Z,77.57
2023-05-24T13:11:52.154Z,77.42
2023-05-24T13:14:20.434Z,74.60
2023-05-24T13:16:48.836Z,73.76
2023-05-24T13:19:17.140Z,72.29
2023-05-24T13:21:45.150Z,72.18
2023-05-24T13:24:15.815Z,70.32
2023-05-24T13:26:43.658Z,71.34
2023-05-24T13:31:42.062Z,63.57
2023-05-24T13:34:10.884Z,55.89
2023-05-24T13:36:38.875Z,53.12
2023-05-24T13:41:41.406Z,56.44
2023-05-24T13:44:09.786Z,50.05
2023-05-24T13:46:37.784Z,49.87
2023-05-24T13:49:06.236Z,52.36
2023-05-24T13:51:34.298Z,53.40
2023-05-24T13:54:02.153Z,53.86
2023-05-24T13:56:32.981Z,56.03
2023-05-24T13:59:02.466Z,59.45
2023-05-24T14:01:30.454Z,59.17
2023-05-24T14:03:58.105Z,60.16
2023-05-24T14:06:25.733Z,59.10
2023-05-24T14:08:54.305Z,60.17
2023-05-24T14:11:22.372Z,59.47
2023-05-24T14:16:21.219Z,63.38
2023-05-24T14:18:50.292Z,60.12
2023-05-24T14:21:19.384Z,61.12
2023-05-24T14:23:47.005Z,67.48
2023-05-24T14:26:14.639Z,68.87
2023-05-24T14:28:42.278Z,69.03
2023-05-24T14:31:09.867Z,69.68
2023-05-24T14:33:37.918Z,68.96
2023-05-24T14:36:05.679Z,68.07
2023-05-24T14:38:33.431Z,64.60
2023-05-24T14:41:01.663Z,62.11
2023-05-24T14:43:29.341Z,63.72
2023-05-24T14:45:57.066Z,62.26
2023-05-24T14:48:24.747Z,67.60
2023-05-24T14:50:52.295Z,69.57
2023-05-24T14:53:19.828Z,71.56
2023-05-24T14:55:47.766Z,73.29
2023-05-24T14:58:15.572Z,69.99
2023-05-24T15:00:44.026Z,73.77
2023-05-24T15:03:12.639Z,74.20
2023-05-24T15:05:41.781Z,74.99
2023-05-24T15:08:10.967Z,74.84
2023-05-24T15:10:39.994Z,72.94
2023-05-24T15:13:08.178Z,74.03
2023-05-24T15:15:35.937Z,73.24
2023-05-24T15:18:03.767Z,73.75
2023-05-24T15:20:31.493Z,75.58
2023-05-24T15:22:59.133Z,73.06
2023-05-24T15:25:26.800Z,73.02
2023-05-24T15:27:54.566Z,75.55
2023-05-24T15:30:24.006Z,73.16
2023-05-24T15:32:51.720Z,75.29
2023-05-24T15:35:19.381Z,74.26
2023-05-24T15:37:46.928Z,73.51
2023-05-24T15:40:15.135Z,76.65
2023-05-24T15:42:43.256Z,77.94
2023-05-24T15:45:11.480Z,80.88
2023-05-24T15:47:40.502Z,80.54
2023-05-24T15:50:09.432Z,83.23
2023-05-24T15:52:37.532Z,81.16
2023-05-24T15:55:05.787Z,81.55
2023-05-24T15:57:33.340Z,81.75
2023-05-24T16:00:01.228Z,83.94
2023-05-24T16:02:29.811Z,83.14
2023-05-24T16:04:57.630Z,81.22
2023-05-24T16:07:25.378Z,82.63
2023-05-24T16:09:52.988Z,83.06
2023-05-24T16:12:21.024Z,80.46
2023-05-24T16:14:48.617Z,79.50
2023-05-24T16:17:16.318Z,82.44
2023-05-24T16:19:46.309Z,80.69
2023-05-24T16:22:14.049Z,82.42
2023-05-24T16:24:41.677Z,80.91
2023-05-24T16:27:09.704Z,82.15
2023-05-24T16:29:37.623Z,83.40
2023-05-24T16:32:05.371Z,79.47
2023-05-24T16:34:41.468Z,80.65
2023-05-24T16:37:19.838Z,79.96
2023-05-24T16:39:47.445Z,79.73
2023-05-24T16:42:15.404Z,80.93
2023-05-24T16:44:42.964Z,81.48
2023-05-24T16:47:10.596Z,84.20
2023-05-24T16:49:38.229Z,84.52
2023-05-24T16:52:05.888Z,84.14
2023-05-24T16:54:33.433Z,84.34
2023-05-24T16:57:01.698Z,84.82
2023-05-24T16:59:29.315Z,84.63
2023-05-24T17:01:56.970Z,86.09
2023-05-24T17:04:24.570Z,86.67
2023-05-24T17:06:52.108Z,86.84
2023-05-24T17:09:19.647Z,85.82
2023-05-24T17:11:48.794Z,86.69
2023-05-24T17:14:17.596Z,86.19
2023-05-24T17:16:45.194Z,85.88
2023-05-24T17:19:13.985Z,85.66
2023-05-24T17:21:42.084Z,86.01
2023-05-24T17:24:09.674Z,86.86
2023-05-24T17:26:38.961Z,89.06
2023-05-24T17:29:06.569Z,88.65
2023-05-24T17:31:34.484Z,88.32
2023-05-24T17:34:02.136Z,90.33
2023-05-24T17:36:33.350Z,90.93
2023-05-24T17:39:00.925Z,89.95
2023-05-24T17:41:28.469Z,90.17
2023-05-24T17:43:55.987Z,90.03
2023-05-24T17:46:23.705Z,89.93
2023-05-24T17:48:51.999Z,89.66
2023-05-24T17:51:19.977Z,90.26
2023-05-24T17:53:48.264Z,92.61
2023-05-24T17:56:15.828Z,93.35
2023-05-24T17:58:44.879Z,94.42
2023-05-24T18:01:13.737Z,95.34
2023-05-24T18:03:42.604Z,92.54
2023-05-24T18:06:11.048Z,93.62
2023-05-24T18:08:43.201Z,94.41
2023-05-24T18:11:13.172Z,94.78
2023-05-24T18:13:42.512Z,94.42
2023-05-24T18:16:14.271Z,93.30
2023-05-24T18:18:43.780Z,94.69
2023-05-24T18:21:12.964Z,94.57
2023-05-24T18:23:40.681Z,98.26
2023-05-24T18:26:09.558Z,99.00
2023-05-24T18:28:38.329Z,100.00
2023-05-24T18:31:11.210Z,100.00
2023-05-24T18:33:39.103Z,100.00
2023-05-24T18:36:07.235Z,100.00
2023-05-24T18:38:35.613Z,100.00
2023-05-24T18:41:06.258Z,100.00
2023-05-24T18:43:34.440Z,100.00
2023-05-24T18:46:02.621Z,100.00
2023-05-24T18:48:30.590Z,100.00
2023-05-24T18:50:58.217Z,100.00
2023-05-24T18:53:25.964Z,100.00
2023-05-24T18:55:53.551Z,100.00
2023-05-24T18:58:21.355Z,100.00
2023-05-24T19:00:50.490Z,100.00
2023-05-24T19:03:18.138Z,100.00
2023-05-24T19:05:45.977Z,100.00
2023-05-24T19:08:13.695Z,100.00
2023-05-24T19:10:41.291Z,100.00
2023-05-24T19:13:08.928Z,100.00
2023-05-24T19:15:37.300Z,100.00
2023-05-24T19:18:05.026Z,100.00
2023-05-24T19:20:32.686Z,100.00
2023-05-24T19:23:00.459Z,100.00
2023-05-24T19:25:28.060Z,100.00
2023-05-24T19:27:59.789Z,100.00
2023-05-24T19:30:27.724Z,100.00
2023-05-24T19:32:55.453Z,100.00
2023-05-24T19:35:23.187Z,100.00
2023-05-24T19:37:51.012Z,100.00
2023-05-24T19:40:18.552Z,100.00
2023-05-24T19:42:46.187Z,100.00
2023-05-24T19:45:14.314Z,100.00
2023-05-24T19:47:42.316Z,100.00
2023-05-24T19:50:10.595Z,100.00
2023-05-24T19:52:38.096Z,100.00
2023-05-24T19:55:06.015Z,100.00
2023-05-24T19:57:33.595Z,100.00
2023-05-24T20:00:01.999Z,100.00
2023-05-24T20:02:29.619Z,100.00
2023-05-24T20:04:57.237Z,100.00
2023-05-24T20:07:24.816Z,100.00
2023-05-24T20:09:53.644Z,100.00
2023-05-24T20:12:21.302Z,100.00
2023-05-24T20:14:51.122Z,100.00
2023-05-24T20:17:18.812Z,100.00
2023-05-24T20:19:46.445Z,100.00
2023-05-24T20:22:16.150Z,100.00
2023-05-24T20:24:43.747Z,100.00
2023-05-24T20:27:11.301Z,100.00
2023-05-24T20:29:38.903Z,100.00
2023-05-24T20:32:06.902Z,100.00
2023-05-24T20:34:34.519Z,100.00
2023-05-24T20:37:02.096Z,100.00
2023-05-24T20:39:29.706Z,100.00
2023-05-24T20:41:58.465Z,100.00
2023-05-24T20:44:26.549Z,100.00
2023-05-24T20:46:54.180Z,100.00
2023-05-24T20:49:21.883Z,100.00
2023-05-24T20:51:49.394Z,100.00
2023-05-24T20:54:16.996Z,100.00
2023-05-24T20:56:44.564Z,100.00
2023-05-24T20:59:12.655Z,100.00
2023-05-24T21:01:40.790Z,100.00
2023-05-24T21:04:08.413Z,100.00
2023-05-24T21:06:36.173Z,100.00
2023-05-24T21:09:03.920Z,100.00
2023-05-24T21:11:32.529Z,100.00
2023-05-24T21:14:00.145Z,100.00
2023-05-24T21:16:28.242Z,100.00
2023-05-24T21:18:55.830Z,100.00
2023-05-24T21:21:24.535Z,100.00
2023-05-24T21:23:52.032Z,100.00
2023-05-24T21:26:19.588Z,100.00
2023-05-24T21:28:47.125Z,100.00
2023-05-24T21:31:14.798Z,100.00
2023-05-24T21:33:44.102Z,100.00
2023-05-24T21:36:11.964Z,100.00
2023-05-24T21:38:39.500Z,100.00
2023-05-24T21:41:07.107Z,100.00
2023-05-24T21:43:34.634Z,100.00
2023-05-24T21:46:02.192Z,100.00
2023-05-24T21:48:29.770Z,100.00
2023-05-24T21:50:57.311Z,100.00
2023-05-24T21:53:24.820Z,100.00
2023-05-24T21:55:52.464Z,100.00
2023-05-24T21:58:20.003Z,100.00
2023-05-24T22:00:47.727Z,100.00
2023-05-24T22:03:15.474Z,100.00
2023-05-24T22:05:43.212Z,100.00
2023-05-24T22:08:11.882Z,100.00
2023-05-24T22:10:39.470Z,100.00
2023-05-24T22:13:07.278Z,100.00
2023-05-24T22:15:34.852Z,100.00
2023-05-24T22:18:02.471Z,100.00
2023-05-24T22:20:30.958Z,100.00
2023-05-24T22:22:58.940Z,100.00
2023-05-24T22:25:26.803Z,100.00
2023-05-24T22:27:55.669Z,100.00
2023-05-24T22:30:23.740Z,100.00
2023-05-24T22:32:51.424Z,100.00
2023-05-24T22:35:19.123Z,100.00
2023-05-24T22:37:46.706Z,100.00
2023-05-24T22:40:14.634Z,100.00
2023-05-24T22:42:42.234Z,100.00
2023-05-24T22:45:10.210Z,100.00
2023-05-24T22:47:39.971Z,100.00
2023-05-24T22:50:08.812Z,100.00
2023-05-24T22:52:36.408Z,100.00
2023-05-24T22:55:04.347Z,100.00
2023-05-24T22:57:31.911Z,100.00
2023-05-24T22:59:59.746Z,100.00
2023-05-24T23:02:29.193Z,100.00
2023-05-24T23:04:57.137Z,100.00
2023-05-24T23:07:25.236Z,100.00
2023-05-24T23:09:53.455Z,100.00
2023-05-24T23:12:21.145Z,100.00
2023-05-24T23:14:48.791Z,100.00
2023-05-24T23:17:20.222Z,100.00
2023-05-24T23:19:50.368Z,100.00
2023-05-24T23:22:19.260Z,100.00
2023-05-24T23:27:15.201Z,100.00
2023-05-24T23:29:42.804Z,100.00
2023-05-24T23:32:10.977Z,100.00
2023-05-24T23:34:38.581Z,100.00
2023-05-24T23:37:06.676Z,100.00
2023-05-24T23:39:34.569Z,100.00
2023-05-24T23:42:02.528Z,100.00
2023-05-24T23:44:30.460Z,100.00
2023-05-24T23:46:58.620Z,100.00
2023-05-24T23:49:26.486Z,100.00
2023-05-24T23:51:54.089Z,100.00
2023-05-24T23:54:21.617Z,100.00
2023-05-24T23:56:49.350Z,100.00
2023-05-24T23:59:17.868Z,100.00
